Starkweather, North Dakota
Current Conditions -  °F | °C
As of 6:15 PM on Sunday 23 Nov 2014 (Local Time) from K9D7 Reporting Station
Light Snow Light Snow  
Wind Chill: -21°   Ceiling: 1500
Heat Index: -10°   Visibility: 9mi
Dew Point: -12°   Wind: 24mph
Humidity: 86%   Direction: 330°NNW
Pressure: 29.64"   Gusts: 30mph
Location:  48.45°N, 98.88°W
Report Text: K9D7 240015Z AUTO 33021G26KT 9SM -SN SCT010 BKN015 OVC020 M10/M12 A2964 RMK AO2
Loading
Personal Weather Stations






























Interactive Weather Map New forecast layout! Learn more

10-Day Weather Forecast

Advertisements
Track Severe Weather on mobile